sensor_id;sensor_type;location;lat;lon;timestamp;temperature;humidity
68922;DHT22;55959;51.244;5.724;2023-08-06T00:00:48;19.80;68.60
68922;DHT22;55959;51.244;5.724;2023-08-06T00:03:14;19.80;68.50
68922;DHT22;55959;51.244;5.724;2023-08-06T00:05:42;19.80;68.50
68922;DHT22;55959;51.244;5.724;2023-08-06T00:08:08;19.80;68.50
68922;DHT22;55959;51.244;5.724;2023-08-06T00:10:34;19.80;68.50
68922;DHT22;55959;51.244;5.724;2023-08-06T00:13:02;19.80;68.50
68922;DHT22;55959;51.244;5.724;2023-08-06T00:15:28;19.80;68.60
68922;DHT22;55959;51.244;5.724;2023-08-06T00:17:54;19.80;68.60
68922;DHT22;55959;51.244;5.724;2023-08-06T00:20:19;19.80;68.60
68922;DHT22;55959;51.244;5.724;2023-08-06T00:22:46;19.80;68.60
68922;DHT22;55959;51.244;5.724;2023-08-06T00:25:11;19.80;68.60
68922;DHT22;55959;51.244;5.724;2023-08-06T00:27:37;19.80;68.70
68922;DHT22;55959;51.244;5.724;2023-08-06T00:30:04;19.80;68.70
68922;DHT22;55959;51.244;5.724;2023-08-06T00:32:30;19.80;68.70
68922;DHT22;55959;51.244;5.724;2023-08-06T00:34:55;19.80;68.70
68922;DHT22;55959;51.244;5.724;2023-08-06T00:37:22;19.70;68.60
68922;DHT22;55959;51.244;5.724;2023-08-06T00:39:47;19.70;68.70
68922;DHT22;55959;51.244;5.724;2023-08-06T00:42:13;19.70;68.60
68922;DHT22;55959;51.244;5.724;2023-08-06T00:44:39;19.80;68.60
68922;DHT22;55959;51.244;5.724;2023-08-06T00:47:06;19.70;68.50
68922;DHT22;55959;51.244;5.724;2023-08-06T00:49:36;19.70;68.50
68922;DHT22;55959;51.244;5.724;2023-08-06T00:52:04;19.70;68.50
68922;DHT22;55959;51.244;5.724;2023-08-06T00:54:31;19.70;68.40
68922;DHT22;55959;51.244;5.724;2023-08-06T00:56:59;19.70;68.40
68922;DHT22;55959;51.244;5.724;2023-08-06T00:59:26;19.70;68.40
68922;DHT22;55959;51.244;5.724;2023-08-06T01:01:52;19.70;68.40
68922;DHT22;55959;51.244;5.724;2023-08-06T01:04:19;19.70;68.40
68922;DHT22;55959;51.244;5.724;2023-08-06T01:06:48;19.70;68.40
68922;DHT22;55959;51.244;5.724;2023-08-06T01:09:41;19.70;68.40
68922;DHT22;55959;51.244;5.724;2023-08-06T01:15:19;19.60;68.30
68922;DHT22;55959;51.244;5.724;2023-08-06T01:17:48;19.60;68.30
68922;DHT22;55959;51.244;5.724;2023-08-06T01:20:14;19.60;68.30
68922;DHT22;55959;51.244;5.724;2023-08-06T01:22:39;19.60;68.30
68922;DHT22;55959;51.244;5.724;2023-08-06T01:25:05;19.60;68.30
68922;DHT22;55959;51.244;5.724;2023-08-06T01:27:46;19.50;68.30
68922;DHT22;55959;51.244;5.724;2023-08-06T01:30:22;19.50;68.30
68922;DHT22;55959;51.244;5.724;2023-08-06T01:32:55;19.50;68.40
68922;DHT22;55959;51.244;5.724;2023-08-06T01:35:25;19.40;68.30
68922;DHT22;55959;51.244;5.724;2023-08-06T01:37:52;19.40;68.40
68922;DHT22;55959;51.244;5.724;2023-08-06T01:40:18;19.40;68.40
68922;DHT22;55959;51.244;5.724;2023-08-06T01:42:44;19.40;68.40
68922;DHT22;55959;51.244;5.724;2023-08-06T01:45:10;19.30;68.30
68922;DHT22;55959;51.244;5.724;2023-08-06T01:47:36;19.30;68.20
68922;DHT22;55959;51.244;5.724;2023-08-06T01:50:02;19.30;68.20
68922;DHT22;55959;51.244;5.724;2023-08-06T01:52:28;19.30;68.30
68922;DHT22;55959;51.244;5.724;2023-08-06T01:54:54;19.30;68.40
68922;DHT22;55959;51.244;5.724;2023-08-06T01:57:23;19.30;68.40
68922;DHT22;55959;51.244;5.724;2023-08-06T01:59:49;19.30;68.40
68922;DHT22;55959;51.244;5.724;2023-08-06T02:02:14;19.20;68.40
68922;DHT22;55959;51.244;5.724;2023-08-06T02:04:40;19.20;68.40
68922;DHT22;55959;51.244;5.724;2023-08-06T02:07:06;19.20;68.40
68922;DHT22;55959;51.244;5.724;2023-08-06T02:09:32;19.20;68.60
68922;DHT22;55959;51.244;5.724;2023-08-06T02:11:58;19.20;68.70
68922;DHT22;55959;51.244;5.724;2023-08-06T02:14:23;19.20;68.80
68922;DHT22;55959;51.244;5.724;2023-08-06T02:16:49;19.20;68.80
68922;DHT22;55959;51.244;5.724;2023-08-06T02:19:15;19.20;68.90
68922;DHT22;55959;51.244;5.724;2023-08-06T02:21:41;19.20;69.00
68922;DHT22;55959;51.244;5.724;2023-08-06T02:24:07;19.20;69.10
68922;DHT22;55959;51.244;5.724;2023-08-06T02:26:34;19.20;69.20
68922;DHT22;55959;51.244;5.724;2023-08-06T02:28:59;19.20;69.30
68922;DHT22;55959;51.244;5.724;2023-08-06T02:31:25;19.20;69.30
68922;DHT22;55959;51.244;5.724;2023-08-06T02:33:51;19.20;69.40
68922;DHT22;55959;51.244;5.724;2023-08-06T02:36:17;19.10;69.40
68922;DHT22;55959;51.244;5.724;2023-08-06T02:38:43;19.10;69.40
68922;DHT22;55959;51.244;5.724;2023-08-06T02:41:09;19.20;69.50
68922;DHT22;55959;51.244;5.724;2023-08-06T02:43:35;19.10;69.60
68922;DHT22;55959;51.244;5.724;2023-08-06T02:46:01;19.10;69.60
68922;DHT22;55959;51.244;5.724;2023-08-06T02:48:27;19.10;69.80
68922;DHT22;55959;51.244;5.724;2023-08-06T02:50:56;19.10;69.80
68922;DHT22;55959;51.244;5.724;2023-08-06T02:53:22;19.20;70.00
68922;DHT22;55959;51.244;5.724;2023-08-06T02:55:48;19.10;69.90
68922;DHT22;55959;51.244;5.724;2023-08-06T02:58:15;19.10;70.00
68922;DHT22;55959;51.244;5.724;2023-08-06T03:00:41;19.20;70.20
68922;DHT22;55959;51.244;5.724;2023-08-06T03:03:08;19.10;70.20
68922;DHT22;55959;51.244;5.724;2023-08-06T03:05:34;19.10;70.40
68922;DHT22;55959;51.244;5.724;2023-08-06T03:08:01;19.10;70.50
68922;DHT22;55959;51.244;5.724;2023-08-06T03:10:26;19.10;70.60
68922;DHT22;55959;51.244;5.724;2023-08-06T03:12:52;19.10;70.70
68922;DHT22;55959;51.244;5.724;2023-08-06T03:15:18;19.10;71.60
68922;DHT22;55959;51.244;5.724;2023-08-06T03:17:45;19.10;70.80
68922;DHT22;55959;51.244;5.724;2023-08-06T03:20:10;19.10;71.00
68922;DHT22;55959;51.244;5.724;2023-08-06T03:22:36;19.10;71.00
68922;DHT22;55959;51.244;5.724;2023-08-06T03:25:02;19.10;71.00
68922;DHT22;55959;51.244;5.724;2023-08-06T03:27:29;19.10;71.00
68922;DHT22;55959;51.244;5.724;2023-08-06T03:29:54;19.10;71.10
68922;DHT22;55959;51.244;5.724;2023-08-06T03:32:20;19.10;71.20
68922;DHT22;55959;51.244;5.724;2023-08-06T03:34:46;19.10;71.30
68922;DHT22;55959;51.244;5.724;2023-08-06T03:37:12;19.10;71.40
68922;DHT22;55959;51.244;5.724;2023-08-06T03:39:38;19.10;71.40
68922;DHT22;55959;51.244;5.724;2023-08-06T03:42:04;19.10;71.40
68922;DHT22;55959;51.244;5.724;2023-08-06T03:44:30;19.10;71.60
68922;DHT22;55959;51.244;5.724;2023-08-06T03:46:56;19.10;71.60
68922;DHT22;55959;51.244;5.724;2023-08-06T03:49:21;19.10;71.60
68922;DHT22;55959;51.244;5.724;2023-08-06T03:51:47;19.10;71.70
68922;DHT22;55959;51.244;5.724;2023-08-06T03:54:13;19.10;71.80
68922;DHT22;55959;51.244;5.724;2023-08-06T03:56:39;19.10;71.80
68922;DHT22;55959;51.244;5.724;2023-08-06T03:59:04;19.10;71.90
68922;DHT22;55959;51.244;5.724;2023-08-06T04:01:30;19.10;72.00
68922;DHT22;55959;51.244;5.724;2023-08-06T04:03:56;19.10;72.00
68922;DHT22;55959;51.244;5.724;2023-08-06T04:06:21;19.10;72.20
68922;DHT22;55959;51.244;5.724;2023-08-06T04:08:50;19.10;72.20
68922;DHT22;55959;51.244;5.724;2023-08-06T04:11:16;19.10;72.30
68922;DHT22;55959;51.244;5.724;2023-08-06T04:13:45;19.10;72.40
68922;DHT22;55959;51.244;5.724;2023-08-06T04:16:10;19.10;72.40
68922;DHT22;55959;51.244;5.724;2023-08-06T04:18:38;19.10;72.40
68922;DHT22;55959;51.244;5.724;2023-08-06T04:21:04;19.10;72.40
68922;DHT22;55959;51.244;5.724;2023-08-06T04:23:36;19.10;72.60
68922;DHT22;55959;51.244;5.724;2023-08-06T04:26:01;19.10;72.70
68922;DHT22;55959;51.244;5.724;2023-08-06T04:28:27;19.10;72.70
68922;DHT22;55959;51.244;5.724;2023-08-06T04:30:53;19.10;72.80
68922;DHT22;55959;51.244;5.724;2023-08-06T04:33:22;19.10;72.70
68922;DHT22;55959;51.244;5.724;2023-08-06T04:35:56;19.10;72.80
68922;DHT22;55959;51.244;5.724;2023-08-06T04:38:24;19.10;72.80
68922;DHT22;55959;51.244;5.724;2023-08-06T04:40:50;19.10;72.80
68922;DHT22;55959;51.244;5.724;2023-08-06T04:43:16;19.10;72.80
68922;DHT22;55959;51.244;5.724;2023-08-06T04:45:54;19.10;72.80
68922;DHT22;55959;51.244;5.724;2023-08-06T04:48:21;19.10;73.00
68922;DHT22;55959;51.244;5.724;2023-08-06T04:50:48;19.10;73.00
68922;DHT22;55959;51.244;5.724;2023-08-06T04:53:15;19.10;73.00
68922;DHT22;55959;51.244;5.724;2023-08-06T04:55:42;19.10;73.00
68922;DHT22;55959;51.244;5.724;2023-08-06T04:58:09;19.10;73.00
68922;DHT22;55959;51.244;5.724;2023-08-06T05:00:35;19.10;73.10
68922;DHT22;55959;51.244;5.724;2023-08-06T05:03:01;19.20;73.10
68922;DHT22;55959;51.244;5.724;2023-08-06T05:05:27;19.10;73.20
68922;DHT22;55959;51.244;5.724;2023-08-06T05:07:54;19.10;73.20
68922;DHT22;55959;51.244;5.724;2023-08-06T05:10:21;19.10;74.20
68922;DHT22;55959;51.244;5.724;2023-08-06T05:12:49;19.10;73.40
68922;DHT22;55959;51.244;5.724;2023-08-06T05:15:16;19.20;73.50
68922;DHT22;55959;51.244;5.724;2023-08-06T05:17:41;19.20;73.40
68922;DHT22;55959;51.244;5.724;2023-08-06T05:20:07;19.10;73.40
68922;DHT22;55959;51.244;5.724;2023-08-06T05:22:33;19.20;73.50
68922;DHT22;55959;51.244;5.724;2023-08-06T05:24:59;19.20;73.50
68922;DHT22;55959;51.244;5.724;2023-08-06T05:27:25;19.20;73.60
68922;DHT22;55959;51.244;5.724;2023-08-06T05:29:55;19.20;73.60
68922;DHT22;55959;51.244;5.724;2023-08-06T05:32:21;19.20;73.60
68922;DHT22;55959;51.244;5.724;2023-08-06T05:34:47;19.20;73.60
68922;DHT22;55959;51.244;5.724;2023-08-06T05:37:13;19.20;73.60
68922;DHT22;55959;51.244;5.724;2023-08-06T05:39:38;19.20;73.60
68922;DHT22;55959;51.244;5.724;2023-08-06T05:42:05;19.20;73.70
68922;DHT22;55959;51.244;5.724;2023-08-06T05:44:31;19.20;73.80
68922;DHT22;55959;51.244;5.724;2023-08-06T05:46:56;19.20;73.80
68922;DHT22;55959;51.244;5.724;2023-08-06T05:49:22;19.20;73.90
68922;DHT22;55959;51.244;5.724;2023-08-06T05:51:54;19.20;74.00
68922;DHT22;55959;51.244;5.724;2023-08-06T05:54:20;19.20;74.00
68922;DHT22;55959;51.244;5.724;2023-08-06T05:56:45;19.20;74.00
68922;DHT22;55959;51.244;5.724;2023-08-06T05:59:11;19.30;74.20
68922;DHT22;55959;51.244;5.724;2023-08-06T06:01:37;19.30;74.20
68922;DHT22;55959;51.244;5.724;2023-08-06T06:04:03;19.30;74.30
68922;DHT22;55959;51.244;5.724;2023-08-06T06:06:29;19.30;74.40
68922;DHT22;55959;51.244;5.724;2023-08-06T06:08:54;19.30;74.40
68922;DHT22;55959;51.244;5.724;2023-08-06T06:11:20;19.30;74.40
68922;DHT22;55959;51.244;5.724;2023-08-06T06:13:50;19.30;74.60
68922;DHT22;55959;51.244;5.724;2023-08-06T06:16:17;19.30;74.50
68922;DHT22;55959;51.244;5.724;2023-08-06T06:18:43;19.30;74.60
68922;DHT22;55959;51.244;5.724;2023-08-06T06:21:10;19.40;74.70
68922;DHT22;55959;51.244;5.724;2023-08-06T06:23:36;19.40;74.80
68922;DHT22;55959;51.244;5.724;2023-08-06T06:26:01;19.40;75.60
68922;DHT22;55959;51.244;5.724;2023-08-06T06:28:27;19.40;74.80
68922;DHT22;55959;51.244;5.724;2023-08-06T06:30:53;19.40;74.80
68922;DHT22;55959;51.244;5.724;2023-08-06T06:33:18;19.40;74.80
68922;DHT22;55959;51.244;5.724;2023-08-06T06:35:44;19.40;74.70
68922;DHT22;55959;51.244;5.724;2023-08-06T06:38:10;19.50;74.80
68922;DHT22;55959;51.244;5.724;2023-08-06T06:40:35;19.50;74.80
68922;DHT22;55959;51.244;5.724;2023-08-06T06:43:01;19.50;74.80
68922;DHT22;55959;51.244;5.724;2023-08-06T06:45:27;19.50;74.80
68922;DHT22;55959;51.244;5.724;2023-08-06T06:47:53;19.50;74.80
68922;DHT22;55959;51.244;5.724;2023-08-06T06:50:18;19.50;74.80
68922;DHT22;55959;51.244;5.724;2023-08-06T06:52:44;19.60;74.80
68922;DHT22;55959;51.244;5.724;2023-08-06T06:55:10;19.60;74.70
68922;DHT22;55959;51.244;5.724;2023-08-06T06:57:35;19.60;74.60
68922;DHT22;55959;51.244;5.724;2023-08-06T07:00:01;19.60;74.60
68922;DHT22;55959;51.244;5.724;2023-08-06T07:02:27;19.60;74.70
68922;DHT22;55959;51.244;5.724;2023-08-06T07:04:53;19.60;74.70
68922;DHT22;55959;51.244;5.724;2023-08-06T07:07:18;19.60;74.70
68922;DHT22;55959;51.244;5.724;2023-08-06T07:09:44;19.60;74.80
68922;DHT22;55959;51.244;5.724;2023-08-06T07:12:10;19.60;74.90
68922;DHT22;55959;51.244;5.724;2023-08-06T07:14:36;19.70;75.90
68922;DHT22;55959;51.244;5.724;2023-08-06T07:17:01;19.70;75.00
68922;DHT22;55959;51.244;5.724;2023-08-06T07:19:27;19.70;75.20
68922;DHT22;55959;51.244;5.724;2023-08-06T07:21:54;19.70;75.10
68922;DHT22;55959;51.244;5.724;2023-08-06T07:24:21;19.70;75.00
68922;DHT22;55959;51.244;5.724;2023-08-06T07:26:47;19.80;75.00
68922;DHT22;55959;51.244;5.724;2023-08-06T07:29:12;19.80;74.80
68922;DHT22;55959;51.244;5.724;2023-08-06T07:31:38;19.80;74.90
68922;DHT22;55959;51.244;5.724;2023-08-06T07:34:04;19.80;74.80
68922;DHT22;55959;51.244;5.724;2023-08-06T07:36:29;19.80;74.60
68922;DHT22;55959;51.244;5.724;2023-08-06T07:38:56;19.80;73.60
68922;DHT22;55959;51.244;5.724;2023-08-06T07:41:25;19.80;72.90
68922;DHT22;55959;51.244;5.724;2023-08-06T07:43:50;19.70;72.40
68922;DHT22;55959;51.244;5.724;2023-08-06T07:46:16;19.70;72.00
68922;DHT22;55959;51.244;5.724;2023-08-06T07:48:42;19.60;71.90
68922;DHT22;55959;51.244;5.724;2023-08-06T07:51:08;19.60;71.80
68922;DHT22;55959;51.244;5.724;2023-08-06T07:53:33;19.50;71.90
68922;DHT22;55959;51.244;5.724;2023-08-06T07:55:59;19.40;72.10
68922;DHT22;55959;51.244;5.724;2023-08-06T07:58:27;19.40;72.40
68922;DHT22;55959;51.244;5.724;2023-08-06T08:00:55;19.30;72.60
68922;DHT22;55959;51.244;5.724;2023-08-06T08:03:20;19.30;72.80
68922;DHT22;55959;51.244;5.724;2023-08-06T08:05:46;19.20;72.90
68922;DHT22;55959;51.244;5.724;2023-08-06T08:08:12;19.20;73.30
68922;DHT22;55959;51.244;5.724;2023-08-06T08:10:38;19.10;73.30
68922;DHT22;55959;51.244;5.724;2023-08-06T08:13:04;19.10;73.40
68922;DHT22;55959;51.244;5.724;2023-08-06T08:15:31;19.10;73.60
68922;DHT22;55959;51.244;5.724;2023-08-06T08:17:58;19.10;73.60
68922;DHT22;55959;51.244;5.724;2023-08-06T08:20:24;19.00;73.40
68922;DHT22;55959;51.244;5.724;2023-08-06T08:22:50;19.00;73.40
68922;DHT22;55959;51.244;5.724;2023-08-06T08:25:17;19.00;73.50
68922;DHT22;55959;51.244;5.724;2023-08-06T08:27:42;19.00;73.60
68922;DHT22;55959;51.244;5.724;2023-08-06T08:30:08;18.90;73.60
68922;DHT22;55959;51.244;5.724;2023-08-06T08:32:34;18.90;73.60
68922;DHT22;55959;51.244;5.724;2023-08-06T08:35:00;18.90;73.80
68922;DHT22;55959;51.244;5.724;2023-08-06T08:37:27;18.80;74.70
68922;DHT22;55959;51.244;5.724;2023-08-06T08:39:52;18.80;74.10
68922;DHT22;55959;51.244;5.724;2023-08-06T08:42:18;18.80;74.30
68922;DHT22;55959;51.244;5.724;2023-08-06T08:44:45;18.80;74.50
68922;DHT22;55959;51.244;5.724;2023-08-06T08:47:11;18.80;74.70
68922;DHT22;55959;51.244;5.724;2023-08-06T08:49:38;18.70;74.70
68922;DHT22;55959;51.244;5.724;2023-08-06T08:52:04;18.70;74.80
68922;DHT22;55959;51.244;5.724;2023-08-06T08:54:32;18.70;74.90
68922;DHT22;55959;51.244;5.724;2023-08-06T08:56:59;18.60;74.70
68922;DHT22;55959;51.244;5.724;2023-08-06T08:59:26;18.60;74.70
68922;DHT22;55959;51.244;5.724;2023-08-06T09:01:53;18.60;74.90
68922;DHT22;55959;51.244;5.724;2023-08-06T09:04:20;18.60;75.00
68922;DHT22;55959;51.244;5.724;2023-08-06T09:06:50;18.60;75.00
68922;DHT22;55959;51.244;5.724;2023-08-06T09:09:22;18.50;75.10
68922;DHT22;55959;51.244;5.724;2023-08-06T09:11:52;18.50;75.10
68922;DHT22;55959;51.244;5.724;2023-08-06T09:14:18;18.50;75.30
68922;DHT22;55959;51.244;5.724;2023-08-06T09:16:44;18.40;75.50
68922;DHT22;55959;51.244;5.724;2023-08-06T09:19:10;18.40;75.70
68922;DHT22;55959;51.244;5.724;2023-08-06T09:21:43;18.40;75.90
68922;DHT22;55959;51.244;5.724;2023-08-06T09:24:12;18.40;76.00
68922;DHT22;55959;51.244;5.724;2023-08-06T09:26:40;18.40;76.10
68922;DHT22;55959;51.244;5.724;2023-08-06T09:29:08;18.40;76.20
68922;DHT22;55959;51.244;5.724;2023-08-06T09:36:50;18.40;76.70
68922;DHT22;55959;51.244;5.724;2023-08-06T09:39:27;18.40;76.90
68922;DHT22;55959;51.244;5.724;2023-08-06T09:41:58;18.30;77.10
68922;DHT22;55959;51.244;5.724;2023-08-06T09:44:27;18.40;77.20
68922;DHT22;55959;51.244;5.724;2023-08-06T09:46:55;18.40;77.30
68922;DHT22;55959;51.244;5.724;2023-08-06T09:49:27;18.40;77.40
68922;DHT22;55959;51.244;5.724;2023-08-06T09:51:54;18.40;77.60
68922;DHT22;55959;51.244;5.724;2023-08-06T09:54:25;18.40;77.50
68922;DHT22;55959;51.244;5.724;2023-08-06T09:56:53;18.40;77.50
68922;DHT22;55959;51.244;5.724;2023-08-06T09:59:25;18.50;77.50
68922;DHT22;55959;51.244;5.724;2023-08-06T10:01:51;18.50;77.50
68922;DHT22;55959;51.244;5.724;2023-08-06T10:04:20;18.50;77.30
68922;DHT22;55959;51.244;5.724;2023-08-06T10:06:49;18.50;77.50
68922;DHT22;55959;51.244;5.724;2023-08-06T10:09:15;18.50;77.50
68922;DHT22;55959;51.244;5.724;2023-08-06T10:11:42;18.50;77.50
68922;DHT22;55959;51.244;5.724;2023-08-06T10:14:21;18.50;77.50
68922;DHT22;55959;51.244;5.724;2023-08-06T10:16:51;18.60;77.60
68922;DHT22;55959;51.244;5.724;2023-08-06T10:19:18;18.60;77.40
68922;DHT22;55959;51.244;5.724;2023-08-06T10:22:13;18.60;77.30
68922;DHT22;55959;51.244;5.724;2023-08-06T10:24:51;18.60;77.10
68922;DHT22;55959;51.244;5.724;2023-08-06T10:27:29;18.60;77.10
68922;DHT22;55959;51.244;5.724;2023-08-06T10:30:29;18.60;77.20
68922;DHT22;55959;51.244;5.724;2023-08-06T10:35:45;18.60;77.40
68922;DHT22;55959;51.244;5.724;2023-08-06T10:38:18;18.70;77.50
68922;DHT22;55959;51.244;5.724;2023-08-06T10:45:51;18.70;77.80
68922;DHT22;55959;51.244;5.724;2023-08-06T10:48:35;18.70;77.80
68922;DHT22;55959;51.244;5.724;2023-08-06T10:51:08;18.70;77.70
68922;DHT22;55959;51.244;5.724;2023-08-06T10:53:34;18.80;77.70
68922;DHT22;55959;51.244;5.724;2023-08-06T10:56:21;18.80;77.50
68922;DHT22;55959;51.244;5.724;2023-08-06T10:58:49;18.80;78.30
68922;DHT22;55959;51.244;5.724;2023-08-06T11:01:16;18.80;77.50
68922;DHT22;55959;51.244;5.724;2023-08-06T11:03:43;18.80;77.50
68922;DHT22;55959;51.244;5.724;2023-08-06T11:06:10;18.80;77.40
68922;DHT22;55959;51.244;5.724;2023-08-06T11:08:38;18.80;77.40
68922;DHT22;55959;51.244;5.724;2023-08-06T11:11:13;18.80;77.30
68922;DHT22;55959;51.244;5.724;2023-08-06T11:13:50;18.80;77.40
68922;DHT22;55959;51.244;5.724;2023-08-06T11:16:21;18.80;77.50
68922;DHT22;55959;51.244;5.724;2023-08-06T11:18:53;18.80;77.40
68922;DHT22;55959;51.244;5.724;2023-08-06T11:21:20;18.80;77.30
68922;DHT22;55959;51.244;5.724;2023-08-06T11:23:48;18.80;77.30
68922;DHT22;55959;51.244;5.724;2023-08-06T11:26:19;18.80;77.40
68922;DHT22;55959;51.244;5.724;2023-08-06T11:28:45;18.80;77.50
68922;DHT22;55959;51.244;5.724;2023-08-06T11:31:22;18.80;77.50
68922;DHT22;55959;51.244;5.724;2023-08-06T11:33:50;18.90;77.70
68922;DHT22;55959;51.244;5.724;2023-08-06T11:36:16;18.90;77.80
68922;DHT22;55959;51.244;5.724;2023-08-06T11:38:54;18.90;78.10
68922;DHT22;55959;51.244;5.724;2023-08-06T11:41:19;18.90;78.20
68922;DHT22;55959;51.244;5.724;2023-08-06T11:43:46;19.00;78.20
68922;DHT22;55959;51.244;5.724;2023-08-06T11:46:12;19.00;78.20
68922;DHT22;55959;51.244;5.724;2023-08-06T11:48:54;19.00;78.20
68922;DHT22;55959;51.244;5.724;2023-08-06T11:51:27;19.00;79.10
68922;DHT22;55959;51.244;5.724;2023-08-06T11:53:57;19.00;78.20
68922;DHT22;55959;51.244;5.724;2023-08-06T11:56:24;19.10;78.30
68922;DHT22;55959;51.244;5.724;2023-08-06T11:58:51;19.10;78.20
68922;DHT22;55959;51.244;5.724;2023-08-06T12:01:18;19.10;78.40
68922;DHT22;55959;51.244;5.724;2023-08-06T12:03:43;19.10;78.50
68922;DHT22;55959;51.244;5.724;2023-08-06T12:06:09;19.10;78.60
68922;DHT22;55959;51.244;5.724;2023-08-06T12:08:36;19.20;78.80
68922;DHT22;55959;51.244;5.724;2023-08-06T12:11:03;19.20;78.80
68922;DHT22;55959;51.244;5.724;2023-08-06T12:13:29;19.30;78.80
68922;DHT22;55959;51.244;5.724;2023-08-06T12:15:55;19.30;78.80
68922;DHT22;55959;51.244;5.724;2023-08-06T12:18:22;19.30;78.80
68922;DHT22;55959;51.244;5.724;2023-08-06T12:20:48;19.30;78.70
68922;DHT22;55959;51.244;5.724;2023-08-06T12:23:14;19.30;78.80
68922;DHT22;55959;51.244;5.724;2023-08-06T12:25:41;19.40;79.10
68922;DHT22;55959;51.244;5.724;2023-08-06T12:28:07;19.40;79.30
68922;DHT22;55959;51.244;5.724;2023-08-06T12:30:34;19.50;79.40
68922;DHT22;55959;51.244;5.724;2023-08-06T12:33:00;19.50;79.20
68922;DHT22;55959;51.244;5.724;2023-08-06T12:35:26;19.60;78.90
68922;DHT22;55959;51.244;5.724;2023-08-06T12:37:53;19.60;78.00
68922;DHT22;55959;51.244;5.724;2023-08-06T12:40:20;19.60;77.40
68922;DHT22;55959;51.244;5.724;2023-08-06T12:42:46;19.60;76.80
68922;DHT22;55959;51.244;5.724;2023-08-06T12:45:12;19.60;76.60
68922;DHT22;55959;51.244;5.724;2023-08-06T12:47:38;19.60;76.50
68922;DHT22;55959;51.244;5.724;2023-08-06T12:50:04;19.60;76.20
68922;DHT22;55959;51.244;5.724;2023-08-06T12:52:30;19.60;76.20
68922;DHT22;55959;51.244;5.724;2023-08-06T12:54:58;19.60;76.00
68922;DHT22;55959;51.244;5.724;2023-08-06T12:57:23;19.60;75.80
68922;DHT22;55959;51.244;5.724;2023-08-06T12:59:49;19.60;75.80
68922;DHT22;55959;51.244;5.724;2023-08-06T13:02:15;19.60;75.90
68922;DHT22;55959;51.244;5.724;2023-08-06T13:04:40;19.60;75.80
68922;DHT22;55959;51.244;5.724;2023-08-06T13:07:06;19.60;75.70
68922;DHT22;55959;51.244;5.724;2023-08-06T13:09:32;19.60;75.70
68922;DHT22;55959;51.244;5.724;2023-08-06T13:11:58;19.60;75.90
68922;DHT22;55959;51.244;5.724;2023-08-06T13:14:25;19.70;76.10
68922;DHT22;55959;51.244;5.724;2023-08-06T13:16:51;19.70;75.70
68922;DHT22;55959;51.244;5.724;2023-08-06T13:19:17;19.70;75.60
68922;DHT22;55959;51.244;5.724;2023-08-06T13:24:11;19.80;75.60
68922;DHT22;55959;51.244;5.724;2023-08-06T13:26:38;19.80;75.30
68922;DHT22;55959;51.244;5.724;2023-08-06T13:29:05;19.90;75.20
68922;DHT22;55959;51.244;5.724;2023-08-06T13:31:32;19.90;75.30
68922;DHT22;55959;51.244;5.724;2023-08-06T13:33:58;19.90;75.20
68922;DHT22;55959;51.244;5.724;2023-08-06T13:36:27;20.00;75.30
68922;DHT22;55959;51.244;5.724;2023-08-06T13:38:53;20.00;74.90
68922;DHT22;55959;51.244;5.724;2023-08-06T13:41:19;20.00;74.80
68922;DHT22;55959;51.244;5.724;2023-08-06T13:43:46;20.10;74.60
68922;DHT22;55959;51.244;5.724;2023-08-06T13:46:12;20.10;74.40
68922;DHT22;55959;51.244;5.724;2023-08-06T13:48:43;20.10;74.40
68922;DHT22;55959;51.244;5.724;2023-08-06T13:51:10;20.10;74.20
68922;DHT22;55959;51.244;5.724;2023-08-06T13:53:37;20.10;74.20
68922;DHT22;55959;51.244;5.724;2023-08-06T13:56:05;20.20;74.10
68922;DHT22;55959;51.244;5.724;2023-08-06T13:58:32;20.20;73.60
68922;DHT22;55959;51.244;5.724;2023-08-06T14:00:58;20.20;73.40
68922;DHT22;55959;51.244;5.724;2023-08-06T14:03:24;20.20;73.20
68922;DHT22;55959;51.244;5.724;2023-08-06T14:05:49;20.20;73.20
68922;DHT22;55959;51.244;5.724;2023-08-06T14:08:16;20.20;73.20
68922;DHT22;55959;51.244;5.724;2023-08-06T14:10:44;20.20;73.10
68922;DHT22;55959;51.244;5.724;2023-08-06T14:13:10;20.20;73.10
68922;DHT22;55959;51.244;5.724;2023-08-06T14:15:36;20.20;72.90
68922;DHT22;55959;51.244;5.724;2023-08-06T14:18:04;20.20;72.90
68922;DHT22;55959;51.244;5.724;2023-08-06T14:20:30;20.20;73.10
68922;DHT22;55959;51.244;5.724;2023-08-06T14:22:56;20.20;73.20
68922;DHT22;55959;51.244;5.724;2023-08-06T14:25:22;20.20;73.20
68922;DHT22;55959;51.244;5.724;2023-08-06T14:27:49;20.20;73.30
68922;DHT22;55959;51.244;5.724;2023-08-06T14:30:16;20.30;73.30
68922;DHT22;55959;51.244;5.724;2023-08-06T14:32:42;20.20;73.00
68922;DHT22;55959;51.244;5.724;2023-08-06T14:35:08;20.30;72.80
68922;DHT22;55959;51.244;5.724;2023-08-06T14:37:33;20.20;72.50
68922;DHT22;55959;51.244;5.724;2023-08-06T14:39:59;20.20;72.40
68922;DHT22;55959;51.244;5.724;2023-08-06T14:42:25;20.20;72.20
68922;DHT22;55959;51.244;5.724;2023-08-06T14:44:50;20.20;72.40
68922;DHT22;55959;51.244;5.724;2023-08-06T14:47:16;20.20;72.00
68922;DHT22;55959;51.244;5.724;2023-08-06T14:49:42;20.20;72.10
68922;DHT22;55959;51.244;5.724;2023-08-06T14:52:10;20.20;72.40
68922;DHT22;55959;51.244;5.724;2023-08-06T14:54:35;20.20;72.80
68922;DHT22;55959;51.244;5.724;2023-08-06T14:57:01;20.20;73.00
68922;DHT22;55959;51.244;5.724;2023-08-06T14:59:27;20.20;72.80
68922;DHT22;55959;51.244;5.724;2023-08-06T15:01:53;20.20;72.80
68922;DHT22;55959;51.244;5.724;2023-08-06T15:04:19;20.20;72.60
68922;DHT22;55959;51.244;5.724;2023-08-06T15:06:45;20.20;72.70
68922;DHT22;55959;51.244;5.724;2023-08-06T15:09:11;20.20;72.70
68922;DHT22;55959;51.244;5.724;2023-08-06T15:11:38;20.20;72.80
68922;DHT22;55959;51.244;5.724;2023-08-06T15:14:03;20.20;73.00
68922;DHT22;55959;51.244;5.724;2023-08-06T15:16:33;20.20;72.80
68922;DHT22;55959;51.244;5.724;2023-08-06T15:19:00;20.30;72.80
68922;DHT22;55959;51.244;5.724;2023-08-06T15:21:26;20.30;72.80
68922;DHT22;55959;51.244;5.724;2023-08-06T15:23:52;20.30;72.40
68922;DHT22;55959;51.244;5.724;2023-08-06T15:26:18;20.30;72.10
68922;DHT22;55959;51.244;5.724;2023-08-06T15:28:45;20.30;72.20
68922;DHT22;55959;51.244;5.724;2023-08-06T15:31:11;20.30;72.50
68922;DHT22;55959;51.244;5.724;2023-08-06T15:33:37;20.30;72.40
68922;DHT22;55959;51.244;5.724;2023-08-06T15:36:03;20.40;72.40
68922;DHT22;55959;51.244;5.724;2023-08-06T15:38:28;20.40;72.20
68922;DHT22;55959;51.244;5.724;2023-08-06T15:40:54;20.40;72.10
68922;DHT22;55959;51.244;5.724;2023-08-06T15:43:20;20.30;72.20
68922;DHT22;55959;51.244;5.724;2023-08-06T15:45:46;20.30;72.40
68922;DHT22;55959;51.244;5.724;2023-08-06T15:48:11;20.20;72.40